sensor_id;sensor_type;location;lat;lon;timestamp;P1;durP1;ratioP1;P2;durP2;ratioP2
13807;SDS011;40769;51.512;5.494;2023-09-18T00:01:55;5.53;;;5.10;;
13807;SDS011;40769;51.512;5.494;2023-09-18T00:04:20;7.82;;;6.82;;
13807;SDS011;40769;51.512;5.494;2023-09-18T00:06:46;4.80;;;4.47;;
13807;SDS011;40769;51.512;5.494;2023-09-18T00:09:12;5.32;;;4.88;;
13807;SDS011;40769;51.512;5.494;2023-09-18T00:11:39;4.80;;;4.50;;
13807;SDS011;40769;51.512;5.494;2023-09-18T00:14:05;5.75;;;5.25;;
13807;SDS011;40769;51.512;5.494;2023-09-18T00:16:32;5.75;;;5.22;;
13807;SDS011;40769;51.512;5.494;2023-09-18T00:18:58;6.43;;;5.82;;
13807;SDS011;40769;51.512;5.494;2023-09-18T00:21:24;5.13;;;4.72;;
13807;SDS011;40769;51.512;5.494;2023-09-18T00:23:50;6.75;;;6.18;;
13807;SDS011;40769;51.512;5.494;2023-09-18T00:26:17;5.78;;;5.28;;
13807;SDS011;40769;51.512;5.494;2023-09-18T00:28:42;5.90;;;5.40;;
13807;SDS011;40769;51.512;5.494;2023-09-18T00:31:08;6.95;;;6.35;;
13807;SDS011;40769;51.512;5.494;2023-09-18T00:33:35;7.38;;;6.68;;
13807;SDS011;40769;51.512;5.494;2023-09-18T00:36:00;7.05;;;6.45;;
13807;SDS011;40769;51.512;5.494;2023-09-18T00:38:26;8.68;;;7.97;;
13807;SDS011;40769;51.512;5.494;2023-09-18T00:40:52;6.13;;;5.70;;
13807;SDS011;40769;51.512;5.494;2023-09-18T00:43:17;7.80;;;7.13;;
13807;SDS011;40769;51.512;5.494;2023-09-18T00:45:44;7.32;;;6.72;;
13807;SDS011;40769;51.512;5.494;2023-09-18T00:48:12;7.75;;;7.15;;
13807;SDS011;40769;51.512;5.494;2023-09-18T00:50:41;8.20;;;7.40;;
13807;SDS011;40769;51.512;5.494;2023-09-18T00:53:08;6.88;;;6.38;;
13807;SDS011;40769;51.512;5.494;2023-09-18T00:55:37;6.95;;;6.43;;
13807;SDS011;40769;51.512;5.494;2023-09-18T00:58:04;7.30;;;6.70;;
13807;SDS011;40769;51.512;5.494;2023-09-18T01:00:31;8.02;;;7.32;;
13807;SDS011;40769;51.512;5.494;2023-09-18T01:02:56;6.20;;;5.70;;
13807;SDS011;40769;51.512;5.494;2023-09-18T01:05:22;8.50;;;7.68;;
13807;SDS011;40769;51.512;5.494;2023-09-18T01:07:48;8.60;;;7.80;;
13807;SDS011;40769;51.512;5.494;2023-09-18T01:10:14;7.78;;;7.07;;
13807;SDS011;40769;51.512;5.494;2023-09-18T01:12:53;7.90;;;7.20;;
13807;SDS011;40769;51.512;5.494;2023-09-18T01:15:36;7.85;;;7.15;;
13807;SDS011;40769;51.512;5.494;2023-09-18T01:18:15;6.25;;;5.63;;
13807;SDS011;40769;51.512;5.494;2023-09-18T01:20:43;6.38;;;5.78;;
13807;SDS011;40769;51.512;5.494;2023-09-18T01:23:09;6.68;;;6.07;;
13807;SDS011;40769;51.512;5.494;2023-09-18T01:25:36;6.75;;;6.25;;
13807;SDS011;40769;51.512;5.494;2023-09-18T01:28:02;7.43;;;6.13;;
13807;SDS011;40769;51.512;5.494;2023-09-18T01:30:29;6.63;;;6.07;;
13807;SDS011;40769;51.512;5.494;2023-09-18T01:32:55;5.72;;;5.22;;
13807;SDS011;40769;51.512;5.494;2023-09-18T01:35:23;7.15;;;6.53;;
13807;SDS011;40769;51.512;5.494;2023-09-18T01:37:55;5.78;;;5.28;;
13807;SDS011;40769;51.512;5.494;2023-09-18T01:40:25;5.97;;;5.43;;
13807;SDS011;40769;51.512;5.494;2023-09-18T01:42:51;5.95;;;5.32;;
13807;SDS011;40769;51.512;5.494;2023-09-18T01:45:17;6.00;;;5.50;;
13807;SDS011;40769;51.512;5.494;2023-09-18T01:47:43;5.88;;;5.38;;
13807;SDS011;40769;51.512;5.494;2023-09-18T01:50:10;5.55;;;5.15;;
13807;SDS011;40769;51.512;5.494;2023-09-18T01:52:35;5.10;;;4.60;;
13807;SDS011;40769;51.512;5.494;2023-09-18T01:55:02;5.65;;;5.22;;
13807;SDS011;40769;51.512;5.494;2023-09-18T01:57:31;5.57;;;4.72;;
13807;SDS011;40769;51.512;5.494;2023-09-18T01:59:56;4.18;;;3.88;;
13807;SDS011;40769;51.512;5.494;2023-09-18T02:02:22;4.63;;;4.32;;
13807;SDS011;40769;51.512;5.494;2023-09-18T02:04:48;5.57;;;5.15;;
13807;SDS011;40769;51.512;5.494;2023-09-18T02:07:14;5.70;;;5.20;;
13807;SDS011;40769;51.512;5.494;2023-09-18T02:09:40;5.55;;;5.15;;
13807;SDS011;40769;51.512;5.494;2023-09-18T02:12:06;5.15;;;4.70;;
13807;SDS011;40769;51.512;5.494;2023-09-18T02:14:32;5.78;;;5.07;;
13807;SDS011;40769;51.512;5.494;2023-09-18T02:16:59;4.30;;;4.00;;
13807;SDS011;40769;51.512;5.494;2023-09-18T02:19:25;4.88;;;4.20;;
13807;SDS011;40769;51.512;5.494;2023-09-18T02:21:51;4.28;;;3.88;;
13807;SDS011;40769;51.512;5.494;2023-09-18T02:24:17;3.63;;;3.33;;
13807;SDS011;40769;51.512;5.494;2023-09-18T02:26:43;4.30;;;3.90;;
13807;SDS011;40769;51.512;5.494;2023-09-18T02:29:10;4.75;;;4.22;;
13807;SDS011;40769;51.512;5.494;2023-09-18T02:31:37;4.85;;;4.40;;
13807;SDS011;40769;51.512;5.494;2023-09-18T02:34:03;5.80;;;5.30;;
13807;SDS011;40769;51.512;5.494;2023-09-18T02:36:29;5.80;;;5.30;;
13807;SDS011;40769;51.512;5.494;2023-09-18T02:38:55;4.32;;;4.03;;
13807;SDS011;40769;51.512;5.494;2023-09-18T02:41:21;4.07;;;3.70;;
13807;SDS011;40769;51.512;5.494;2023-09-18T02:43:46;5.32;;;4.70;;
13807;SDS011;40769;51.512;5.494;2023-09-18T02:46:12;4.03;;;3.63;;
13807;SDS011;40769;51.512;5.494;2023-09-18T02:48:38;4.20;;;3.90;;
13807;SDS011;40769;51.512;5.494;2023-09-18T02:51:05;4.65;;;3.83;;
13807;SDS011;40769;51.512;5.494;2023-09-18T02:53:30;5.00;;;3.50;;
13807;SDS011;40769;51.512;5.494;2023-09-18T02:55:57;3.65;;;3.38;;
13807;SDS011;40769;51.512;5.494;2023-09-18T02:58:24;4.32;;;3.80;;
13807;SDS011;40769;51.512;5.494;2023-09-18T03:00:55;5.18;;;4.13;;
13807;SDS011;40769;51.512;5.494;2023-09-18T03:03:23;4.00;;;3.60;;
13807;SDS011;40769;51.512;5.494;2023-09-18T03:05:50;4.68;;;4.25;;
13807;SDS011;40769;51.512;5.494;2023-09-18T03:08:15;4.63;;;4.20;;
13807;SDS011;40769;51.512;5.494;2023-09-18T03:10:42;3.53;;;3.22;;
13807;SDS011;40769;51.512;5.494;2023-09-18T03:13:08;3.60;;;3.30;;
13807;SDS011;40769;51.512;5.494;2023-09-18T03:15:35;4.65;;;2.90;;
13807;SDS011;40769;51.512;5.494;2023-09-18T03:18:02;3.58;;;3.28;;
13807;SDS011;40769;51.512;5.494;2023-09-18T03:20:30;3.25;;;2.95;;
13807;SDS011;40769;51.512;5.494;2023-09-18T03:22:56;3.63;;;3.33;;
13807;SDS011;40769;51.512;5.494;2023-09-18T03:25:24;4.32;;;3.92;;
13807;SDS011;40769;51.512;5.494;2023-09-18T03:27:54;4.60;;;4.20;;
13807;SDS011;40769;51.512;5.494;2023-09-18T03:30:21;4.75;;;4.30;;
13807;SDS011;40769;51.512;5.494;2023-09-18T03:32:48;4.78;;;4.22;;
13807;SDS011;40769;51.512;5.494;2023-09-18T03:35:14;6.55;;;4.60;;
13807;SDS011;40769;51.512;5.494;2023-09-18T03:37:43;6.13;;;4.00;;
13807;SDS011;40769;51.512;5.494;2023-09-18T03:40:19;5.82;;;4.30;;
13807;SDS011;40769;51.512;5.494;2023-09-18T03:42:45;5.00;;;4.53;;
13807;SDS011;40769;51.512;5.494;2023-09-18T03:45:11;5.13;;;4.63;;
13807;SDS011;40769;51.512;5.494;2023-09-18T03:47:40;6.90;;;4.00;;
13807;SDS011;40769;51.512;5.494;2023-09-18T03:50:07;4.55;;;4.10;;
13807;SDS011;40769;51.512;5.494;2023-09-18T03:52:34;5.72;;;4.40;;
13807;SDS011;40769;51.512;5.494;2023-09-18T03:55:00;4.80;;;4.28;;
13807;SDS011;40769;51.512;5.494;2023-09-18T03:57:26;5.25;;;4.25;;
13807;SDS011;40769;51.512;5.494;2023-09-18T03:59:52;5.25;;;4.55;;
13807;SDS011;40769;51.512;5.494;2023-09-18T04:02:17;5.63;;;4.20;;
13807;SDS011;40769;51.512;5.494;2023-09-18T04:04:43;6.13;;;4.78;;
13807;SDS011;40769;51.512;5.494;2023-09-18T04:07:09;5.30;;;4.80;;
13807;SDS011;40769;51.512;5.494;2023-09-18T04:09:35;6.63;;;4.88;;
13807;SDS011;40769;51.512;5.494;2023-09-18T04:12:01;6.53;;;4.53;;
13807;SDS011;40769;51.512;5.494;2023-09-18T04:14:27;8.15;;;5.18;;
13807;SDS011;40769;51.512;5.494;2023-09-18T04:16:53;5.32;;;4.80;;
13807;SDS011;40769;51.512;5.494;2023-09-18T04:19:19;6.82;;;4.95;;
13807;SDS011;40769;51.512;5.494;2023-09-18T04:21:44;6.20;;;4.80;;
13807;SDS011;40769;51.512;5.494;2023-09-18T04:24:10;6.13;;;5.53;;
13807;SDS011;40769;51.512;5.494;2023-09-18T04:26:37;5.70;;;5.10;;
13807;SDS011;40769;51.512;5.494;2023-09-18T04:29:02;5.60;;;5.10;;
13807;SDS011;40769;51.512;5.494;2023-09-18T04:31:29;6.00;;;5.18;;
13807;SDS011;40769;51.512;5.494;2023-09-18T04:33:55;5.25;;;4.38;;
13807;SDS011;40769;51.512;5.494;2023-09-18T04:36:21;4.13;;;3.72;;
13807;SDS011;40769;51.512;5.494;2023-09-18T04:38:46;5.40;;;4.38;;
13807;SDS011;40769;51.512;5.494;2023-09-18T04:41:13;5.03;;;4.63;;
13807;SDS011;40769;51.512;5.494;2023-09-18T04:43:39;5.50;;;4.70;;
13807;SDS011;40769;51.512;5.494;2023-09-18T04:46:05;5.00;;;4.60;;
13807;SDS011;40769;51.512;5.494;2023-09-18T04:48:31;3.83;;;3.53;;
13807;SDS011;40769;51.512;5.494;2023-09-18T04:50:58;4.55;;;4.15;;
13807;SDS011;40769;51.512;5.494;2023-09-18T04:53:24;5.03;;;4.63;;
13807;SDS011;40769;51.512;5.494;2023-09-18T04:55:50;4.45;;;4.00;;
13807;SDS011;40769;51.512;5.494;2023-09-18T04:58:16;4.32;;;3.92;;
13807;SDS011;40769;51.512;5.494;2023-09-18T05:00:42;4.10;;;3.80;;
13807;SDS011;40769;51.512;5.494;2023-09-18T05:03:09;4.75;;;4.30;;
13807;SDS011;40769;51.512;5.494;2023-09-18T05:05:35;4.63;;;4.18;;
13807;SDS011;40769;51.512;5.494;2023-09-18T05:08:01;5.57;;;3.97;;
13807;SDS011;40769;51.512;5.494;2023-09-18T05:10:32;4.75;;;3.88;;
13807;SDS011;40769;51.512;5.494;2023-09-18T05:13:01;3.70;;;3.40;;
13807;SDS011;40769;51.512;5.494;2023-09-18T05:15:27;3.60;;;3.28;;
13807;SDS011;40769;51.512;5.494;2023-09-18T05:17:55;4.40;;;3.60;;
13807;SDS011;40769;51.512;5.494;2023-09-18T05:20:24;4.32;;;3.38;;
13807;SDS011;40769;51.512;5.494;2023-09-18T05:22:51;3.00;;;2.80;;
13807;SDS011;40769;51.512;5.494;2023-09-18T05:25:21;4.03;;;3.25;;
13807;SDS011;40769;51.512;5.494;2023-09-18T05:27:48;3.70;;;3.03;;
13807;SDS011;40769;51.512;5.494;2023-09-18T05:30:21;2.83;;;2.63;;
13807;SDS011;40769;51.512;5.494;2023-09-18T05:32:48;2.95;;;2.55;;
13807;SDS011;40769;51.512;5.494;2023-09-18T05:35:14;2.88;;;2.55;;
13807;SDS011;40769;51.512;5.494;2023-09-18T05:37:41;2.80;;;2.50;;
13807;SDS011;40769;51.512;5.494;2023-09-18T05:40:07;2.53;;;2.33;;
13807;SDS011;40769;51.512;5.494;2023-09-18T05:42:35;2.40;;;2.20;;
13807;SDS011;40769;51.512;5.494;2023-09-18T05:45:08;2.38;;;2.13;;
13807;SDS011;40769;51.512;5.494;2023-09-18T05:47:34;2.83;;;2.20;;
13807;SDS011;40769;51.512;5.494;2023-09-18T05:50:01;2.53;;;2.10;;
13807;SDS011;40769;51.512;5.494;2023-09-18T05:52:28;2.65;;;2.22;;
13807;SDS011;40769;51.512;5.494;2023-09-18T05:54:54;2.40;;;2.15;;
13807;SDS011;40769;51.512;5.494;2023-09-18T05:57:20;2.22;;;1.90;;
13807;SDS011;40769;51.512;5.494;2023-09-18T05:59:45;2.15;;;1.75;;
13807;SDS011;40769;51.512;5.494;2023-09-18T06:02:11;2.13;;;1.55;;
13807;SDS011;40769;51.512;5.494;2023-09-18T06:04:37;2.25;;;1.70;;
13807;SDS011;40769;51.512;5.494;2023-09-18T06:07:03;1.88;;;1.70;;
13807;SDS011;40769;51.512;5.494;2023-09-18T06:09:29;3.05;;;1.70;;
13807;SDS011;40769;51.512;5.494;2023-09-18T06:11:55;1.73;;;1.63;;
13807;SDS011;40769;51.512;5.494;2023-09-18T06:14:20;2.70;;;1.80;;
13807;SDS011;40769;51.512;5.494;2023-09-18T06:16:46;1.65;;;1.48;;
13807;SDS011;40769;51.512;5.494;2023-09-18T06:19:12;2.03;;;1.52;;
13807;SDS011;40769;51.512;5.494;2023-09-18T06:21:38;2.90;;;1.83;;
13807;SDS011;40769;51.512;5.494;2023-09-18T06:24:04;2.60;;;1.67;;
13807;SDS011;40769;51.512;5.494;2023-09-18T06:26:31;1.50;;;1.40;;
13807;SDS011;40769;51.512;5.494;2023-09-18T06:28:56;2.33;;;1.75;;
13807;SDS011;40769;51.512;5.494;2023-09-18T06:31:22;1.85;;;1.38;;
13807;SDS011;40769;51.512;5.494;2023-09-18T06:33:48;1.63;;;1.35;;
13807;SDS011;40769;51.512;5.494;2023-09-18T06:36:14;1.88;;;1.67;;
13807;SDS011;40769;51.512;5.494;2023-09-18T06:38:40;1.75;;;1.60;;
13807;SDS011;40769;51.512;5.494;2023-09-18T06:41:05;2.75;;;1.50;;
13807;SDS011;40769;51.512;5.494;2023-09-18T06:43:31;1.88;;;1.40;;
13807;SDS011;40769;51.512;5.494;2023-09-18T06:45:56;3.15;;;2.08;;
13807;SDS011;40769;51.512;5.494;2023-09-18T06:48:25;1.50;;;1.25;;
13807;SDS011;40769;51.512;5.494;2023-09-18T06:50:51;2.20;;;1.40;;
13807;SDS011;40769;51.512;5.494;2023-09-18T06:53:17;1.42;;;1.33;;
13807;SDS011;40769;51.512;5.494;2023-09-18T06:55:42;2.17;;;1.30;;
13807;SDS011;40769;51.512;5.494;2023-09-18T06:58:08;2.10;;;1.50;;
13807;SDS011;40769;51.512;5.494;2023-09-18T07:00:34;1.70;;;1.30;;
13807;SDS011;40769;51.512;5.494;2023-09-18T07:03:00;1.42;;;1.30;;
13807;SDS011;40769;51.512;5.494;2023-09-18T07:05:25;2.30;;;1.35;;
13807;SDS011;40769;51.512;5.494;2023-09-18T07:07:51;1.63;;;1.35;;
13807;SDS011;40769;51.512;5.494;2023-09-18T07:10:17;1.17;;;1.05;;
13807;SDS011;40769;51.512;5.494;2023-09-18T07:12:43;3.30;;;1.30;;
13807;SDS011;40769;51.512;5.494;2023-09-18T07:15:09;1.55;;;1.20;;
13807;SDS011;40769;51.512;5.494;2023-09-18T07:17:35;2.08;;;1.38;;
13807;SDS011;40769;51.512;5.494;2023-09-18T07:20:03;1.20;;;1.10;;
13807;SDS011;40769;51.512;5.494;2023-09-18T07:22:38;1.70;;;1.10;;
13807;SDS011;40769;51.512;5.494;2023-09-18T07:25:05;1.50;;;1.27;;
13807;SDS011;40769;51.512;5.494;2023-09-18T07:27:32;1.90;;;1.33;;
13807;SDS011;40769;51.512;5.494;2023-09-18T07:29:57;1.95;;;1.10;;
13807;SDS011;40769;51.512;5.494;2023-09-18T07:32:23;1.50;;;1.40;;
13807;SDS011;40769;51.512;5.494;2023-09-18T07:34:51;1.63;;;1.13;;
13807;SDS011;40769;51.512;5.494;2023-09-18T07:37:17;4.13;;;1.55;;
13807;SDS011;40769;51.512;5.494;2023-09-18T07:39:46;1.30;;;1.20;;
13807;SDS011;40769;51.512;5.494;2023-09-18T07:42:11;1.70;;;1.30;;
13807;SDS011;40769;51.512;5.494;2023-09-18T07:44:37;2.83;;;1.50;;
13807;SDS011;40769;51.512;5.494;2023-09-18T07:47:03;1.67;;;1.55;;
13807;SDS011;40769;51.512;5.494;2023-09-18T07:49:29;1.50;;;1.23;;
13807;SDS011;40769;51.512;5.494;2023-09-18T07:51:55;1.27;;;1.13;;
13807;SDS011;40769;51.512;5.494;2023-09-18T07:54:20;2.38;;;1.48;;
13807;SDS011;40769;51.512;5.494;2023-09-18T07:56:46;2.30;;;1.20;;
13807;SDS011;40769;51.512;5.494;2023-09-18T07:59:11;1.48;;;1.38;;
13807;SDS011;40769;51.512;5.494;2023-09-18T08:01:39;1.85;;;1.60;;
13807;SDS011;40769;51.512;5.494;2023-09-18T08:04:05;1.88;;;1.15;;
13807;SDS011;40769;51.512;5.494;2023-09-18T08:06:31;2.55;;;1.40;;
13807;SDS011;40769;51.512;5.494;2023-09-18T08:08:57;2.13;;;1.40;;
13807;SDS011;40769;51.512;5.494;2023-09-18T08:11:22;1.75;;;1.23;;
13807;SDS011;40769;51.512;5.494;2023-09-18T08:13:48;1.98;;;1.45;;
13807;SDS011;40769;51.512;5.494;2023-09-18T08:16:14;1.30;;;1.10;;
13807;SDS011;40769;51.512;5.494;2023-09-18T08:18:40;1.33;;;1.20;;
13807;SDS011;40769;51.512;5.494;2023-09-18T08:21:06;1.40;;;1.30;;
13807;SDS011;40769;51.512;5.494;2023-09-18T08:23:34;1.98;;;1.30;;
13807;SDS011;40769;51.512;5.494;2023-09-18T08:26:01;1.50;;;1.40;;
13807;SDS011;40769;51.512;5.494;2023-09-18T08:28:29;3.45;;;1.52;;
13807;SDS011;40769;51.512;5.494;2023-09-18T08:30:55;2.35;;;1.20;;
13807;SDS011;40769;51.512;5.494;2023-09-18T08:33:21;2.05;;;1.30;;
13807;SDS011;40769;51.512;5.494;2023-09-18T08:35:46;2.38;;;1.70;;
13807;SDS011;40769;51.512;5.494;2023-09-18T08:38:14;1.60;;;1.35;;
13807;SDS011;40769;51.512;5.494;2023-09-18T08:40:40;2.35;;;1.45;;
13807;SDS011;40769;51.512;5.494;2023-09-18T08:43:07;1.58;;;1.23;;
13807;SDS011;40769;51.512;5.494;2023-09-18T08:45:37;2.67;;;1.80;;
13807;SDS011;40769;51.512;5.494;2023-09-18T08:48:08;1.50;;;1.30;;
13807;SDS011;40769;51.512;5.494;2023-09-18T08:50:34;2.38;;;1.70;;
13807;SDS011;40769;51.512;5.494;2023-09-18T08:53:01;2.15;;;1.50;;
13807;SDS011;40769;51.512;5.494;2023-09-18T08:55:27;2.67;;;1.40;;
13807;SDS011;40769;51.512;5.494;2023-09-18T08:57:53;4.05;;;1.80;;
13807;SDS011;40769;51.512;5.494;2023-09-18T09:00:20;3.05;;;1.52;;
13807;SDS011;40769;51.512;5.494;2023-09-18T09:02:46;2.45;;;1.52;;
13807;SDS011;40769;51.512;5.494;2023-09-18T09:05:15;2.30;;;1.27;;
13807;SDS011;40769;51.512;5.494;2023-09-18T09:07:41;2.92;;;1.48;;
13807;SDS011;40769;51.512;5.494;2023-09-18T09:10:07;2.13;;;1.63;;
13807;SDS011;40769;51.512;5.494;2023-09-18T09:12:48;2.75;;;1.73;;
13807;SDS011;40769;51.512;5.494;2023-09-18T09:15:18;2.65;;;1.80;;
13807;SDS011;40769;51.512;5.494;2023-09-18T09:17:44;3.15;;;1.70;;
13807;SDS011;40769;51.512;5.494;2023-09-18T09:20:12;4.68;;;1.77;;
13807;SDS011;40769;51.512;5.494;2023-09-18T09:22:40;3.08;;;2.00;;
13807;SDS011;40769;51.512;5.494;2023-09-18T09:25:26;3.53;;;1.83;;
13807;SDS011;40769;51.512;5.494;2023-09-18T09:27:54;2.42;;;1.65;;
13807;SDS011;40769;51.512;5.494;2023-09-18T09:30:24;3.58;;;2.22;;
13807;SDS011;40769;51.512;5.494;2023-09-18T09:32:51;2.75;;;1.80;;
13807;SDS011;40769;51.512;5.494;2023-09-18T09:35:22;2.72;;;1.90;;
13807;SDS011;40769;51.512;5.494;2023-09-18T09:37:52;2.53;;;1.90;;
13807;SDS011;40769;51.512;5.494;2023-09-18T09:40:22;3.15;;;1.98;;
13807;SDS011;40769;51.512;5.494;2023-09-18T09:42:50;2.90;;;1.75;;
13807;SDS011;40769;51.512;5.494;2023-09-18T09:45:19;2.33;;;1.77;;
13807;SDS011;40769;51.512;5.494;2023-09-18T09:47:45;2.97;;;1.83;;
13807;SDS011;40769;51.512;5.494;2023-09-18T09:50:12;2.58;;;1.80;;
13807;SDS011;40769;51.512;5.494;2023-09-18T09:52:42;3.53;;;2.13;;
13807;SDS011;40769;51.512;5.494;2023-09-18T09:57:54;3.03;;;1.92;;
13807;SDS011;40769;51.512;5.494;2023-09-18T10:00:35;2.92;;;1.75;;
13807;SDS011;40769;51.512;5.494;2023-09-18T10:03:08;3.75;;;1.80;;
13807;SDS011;40769;51.512;5.494;2023-09-18T10:05:39;4.40;;;1.90;;
13807;SDS011;40769;51.512;5.494;2023-09-18T10:08:08;4.13;;;1.85;;
13807;SDS011;40769;51.512;5.494;2023-09-18T10:10:47;2.65;;;1.55;;
13807;SDS011;40769;51.512;5.494;2023-09-18T10:15:49;3.03;;;1.63;;
13807;SDS011;40769;51.512;5.494;2023-09-18T10:18:26;2.95;;;1.80;;
13807;SDS011;40769;51.512;5.494;2023-09-18T10:29:22;5.13;;;1.60;;
13807;SDS011;40769;51.512;5.494;2023-09-18T10:31:49;2.85;;;1.83;;
13807;SDS011;40769;51.512;5.494;2023-09-18T10:34:17;3.13;;;1.77;;
13807;SDS011;40769;51.512;5.494;2023-09-18T10:36:43;2.90;;;1.70;;
13807;SDS011;40769;51.512;5.494;2023-09-18T10:39:12;1.98;;;1.50;;
13807;SDS011;40769;51.512;5.494;2023-09-18T10:41:38;2.00;;;1.77;;
13807;SDS011;40769;51.512;5.494;2023-09-18T10:44:06;2.78;;;1.73;;
13807;SDS011;40769;51.512;5.494;2023-09-18T10:46:33;1.80;;;1.60;;
13807;SDS011;40769;51.512;5.494;2023-09-18T10:48:59;2.10;;;1.88;;
13807;SDS011;40769;51.512;5.494;2023-09-18T10:51:26;2.35;;;1.73;;
13807;SDS011;40769;51.512;5.494;2023-09-18T10:53:53;2.75;;;1.65;;
13807;SDS011;40769;51.512;5.494;2023-09-18T10:56:21;2.10;;;1.70;;
13807;SDS011;40769;51.512;5.494;2023-09-18T10:58:54;2.33;;;1.67;;
13807;SDS011;40769;51.512;5.494;2023-09-18T11:01:32;1.98;;;1.73;;
13807;SDS011;40769;51.512;5.494;2023-09-18T11:04:03;3.38;;;1.88;;
13807;SDS011;40769;51.512;5.494;2023-09-18T11:07:00;3.25;;;1.98;;
13807;SDS011;40769;51.512;5.494;2023-09-18T11:09:19;3.53;;;2.10;;
13807;SDS011;40769;51.512;5.494;2023-09-18T11:11:52;3.03;;;1.77;;
13807;SDS011;40769;51.512;5.494;2023-09-18T11:14:22;2.40;;;1.98;;
13807;SDS011;40769;51.512;5.494;2023-09-18T11:17:05;2.97;;;1.88;;
13807;SDS011;40769;51.512;5.494;2023-09-18T11:19:31;2.95;;;1.90;;
13807;SDS011;40769;51.512;5.494;2023-09-18T11:22:06;1.67;;;1.52;;
13807;SDS011;40769;51.512;5.494;2023-09-18T11:24:33;3.47;;;2.10;;
13807;SDS011;40769;51.512;5.494;2023-09-18T11:26:59;2.25;;;1.80;;
13807;SDS011;40769;51.512;5.494;2023-09-18T11:29:24;3.50;;;2.10;;
13807;SDS011;40769;51.512;5.494;2023-09-18T11:31:54;2.72;;;2.40;;
13807;SDS011;40769;51.512;5.494;2023-09-18T11:36:53;3.53;;;1.92;;
13807;SDS011;40769;51.512;5.494;2023-09-18T11:42:17;3.35;;;1.70;;
13807;SDS011;40769;51.512;5.494;2023-09-18T11:44:44;2.58;;;1.83;;
13807;SDS011;40769;51.512;5.494;2023-09-18T11:47:17;1.98;;;1.73;;
13807;SDS011;40769;51.512;5.494;2023-09-18T11:49:51;2.53;;;1.70;;
13807;SDS011;40769;51.512;5.494;2023-09-18T11:52:23;2.35;;;1.90;;
13807;SDS011;40769;51.512;5.494;2023-09-18T11:54:54;2.28;;;1.70;;
13807;SDS011;40769;51.512;5.494;2023-09-18T11:57:22;1.75;;;1.65;;
13807;SDS011;40769;51.512;5.494;2023-09-18T11:59:47;1.80;;;1.55;;
13807;SDS011;40769;51.512;5.494;2023-09-18T12:02:25;2.30;;;1.98;;
13807;SDS011;40769;51.512;5.494;2023-09-18T12:05:11;2.45;;;1.90;;
13807;SDS011;40769;51.512;5.494;2023-09-18T12:07:40;2.00;;;1.90;;
13807;SDS011;40769;51.512;5.494;2023-09-18T12:10:11;1.92;;;1.80;;
13807;SDS011;40769;51.512;5.494;2023-09-18T12:12:41;2.90;;;1.80;;
13807;SDS011;40769;51.512;5.494;2023-09-18T12:15:10;2.50;;;1.85;;
13807;SDS011;40769;51.512;5.494;2023-09-18T12:17:36;1.58;;;1.45;;
13807;SDS011;40769;51.512;5.494;2023-09-18T12:20:02;1.67;;;1.55;;
13807;SDS011;40769;51.512;5.494;2023-09-18T12:22:30;2.38;;;1.80;;
13807;SDS011;40769;51.512;5.494;2023-09-18T12:25:14;2.65;;;1.55;;
13807;SDS011;40769;51.512;5.494;2023-09-18T12:27:42;3.17;;;1.92;;
13807;SDS011;40769;51.512;5.494;2023-09-18T12:30:07;3.63;;;1.55;;
13807;SDS011;40769;51.512;5.494;2023-09-18T12:32:38;1.90;;;1.70;;
13807;SDS011;40769;51.512;5.494;2023-09-18T12:35:07;2.25;;;1.42;;
13807;SDS011;40769;51.512;5.494;2023-09-18T12:37:34;2.00;;;1.77;;
13807;SDS011;40769;51.512;5.494;2023-09-18T12:40:04;2.33;;;1.63;;
13807;SDS011;40769;51.512;5.494;2023-09-18T12:42:36;2.40;;;1.60;;
13807;SDS011;40769;51.512;5.494;2023-09-18T12:45:05;1.95;;;1.63;;
13807;SDS011;40769;51.512;5.494;2023-09-18T12:47:35;2.58;;;1.65;;
13807;SDS011;40769;51.512;5.494;2023-09-18T12:50:04;3.20;;;1.75;;
13807;SDS011;40769;51.512;5.494;2023-09-18T12:52:31;2.08;;;1.70;;
13807;SDS011;40769;51.512;5.494;2023-09-18T12:55:00;1.95;;;1.42;;
13807;SDS011;40769;51.512;5.494;2023-09-18T12:57:28;1.92;;;1.55;;
13807;SDS011;40769;51.512;5.494;2023-09-18T12:59:54;2.92;;;1.48;;
13807;SDS011;40769;51.512;5.494;2023-09-18T13:02:20;2.80;;;2.05;;
13807;SDS011;40769;51.512;5.494;2023-09-18T13:04:53;1.98;;;1.70;;
13807;SDS011;40769;51.512;5.494;2023-09-18T13:07:20;2.47;;;1.92;;
13807;SDS011;40769;51.512;5.494;2023-09-18T13:09:59;2.03;;;1.73;;
13807;SDS011;40769;51.512;5.494;2023-09-18T13:17:52;1.98;;;1.83;;
13807;SDS011;40769;51.512;5.494;2023-09-18T13:20:22;1.80;;;1.70;;
13807;SDS011;40769;51.512;5.494;2023-09-18T13:22:53;2.58;;;1.90;;
13807;SDS011;40769;51.512;5.494;2023-09-18T13:25:23;2.53;;;1.60;;
13807;SDS011;40769;51.512;5.494;2023-09-18T13:27:51;2.15;;;1.70;;
13807;SDS011;40769;51.512;5.494;2023-09-18T13:30:18;2.05;;;1.70;;
13807;SDS011;40769;51.512;5.494;2023-09-18T13:32:45;2.30;;;1.80;;
13807;SDS011;40769;51.512;5.494;2023-09-18T13:35:18;2.15;;;1.67;;
13807;SDS011;40769;51.512;5.494;2023-09-18T13:37:44;2.58;;;1.90;;
13807;SDS011;40769;51.512;5.494;2023-09-18T13:40:10;3.53;;;1.80;;
13807;SDS011;40769;51.512;5.494;2023-09-18T13:42:37;3.00;;;1.77;;
13807;SDS011;40769;51.512;5.494;2023-09-18T13:45:04;2.78;;;1.73;;
13807;SDS011;40769;51.512;5.494;2023-09-18T13:47:33;1.70;;;1.60;;
13807;SDS011;40769;51.512;5.494;2023-09-18T13:50:00;2.00;;;1.80;;
13807;SDS011;40769;51.512;5.494;2023-09-18T13:52:28;2.38;;;1.80;;
13807;SDS011;40769;51.512;5.494;2023-09-18T13:54:55;2.25;;;1.65;;
13807;SDS011;40769;51.512;5.494;2023-09-18T13:57:20;2.60;;;2.08;;
13807;SDS011;40769;51.512;5.494;2023-09-18T13:59:55;2.53;;;1.90;;
13807;SDS011;40769;51.512;5.494;2023-09-18T14:02:24;1.63;;;1.52;;
13807;SDS011;40769;51.512;5.494;2023-09-18T14:04:52;5.68;;;2.00;;
13807;SDS011;40769;51.512;5.494;2023-09-18T14:07:18;1.98;;;1.70;;
13807;SDS011;40769;51.512;5.494;2023-09-18T14:09:44;1.95;;;1.75;;
13807;SDS011;40769;51.512;5.494;2023-09-18T14:12:11;3.45;;;1.50;;
13807;SDS011;40769;51.512;5.494;2023-09-18T14:14:37;2.63;;;1.42;;
13807;SDS011;40769;51.512;5.494;2023-09-18T14:17:05;2.28;;;1.63;;
13807;SDS011;40769;51.512;5.494;2023-09-18T14:19:34;2.45;;;1.30;;
13807;SDS011;40769;51.512;5.494;2023-09-18T14:22:00;1.77;;;1.67;;
13807;SDS011;40769;51.512;5.494;2023-09-18T14:24:29;2.83;;;1.42;;
13807;SDS011;40769;51.512;5.494;2023-09-18T14:26:56;1.80;;;1.70;;
13807;SDS011;40769;51.512;5.494;2023-09-18T14:29:22;2.65;;;1.40;;
13807;SDS011;40769;51.512;5.494;2023-09-18T14:31:47;3.13;;;1.70;;
13807;SDS011;40769;51.512;5.494;2023-09-18T14:34:13;2.08;;;1.67;;
13807;SDS011;40769;51.512;5.494;2023-09-18T14:36:39;1.98;;;1.50;;
13807;SDS011;40769;51.512;5.494;2023-09-18T14:39:05;2.38;;;1.60;;
13807;SDS011;40769;51.512;5.494;2023-09-18T14:41:37;1.70;;;1.60;;
13807;SDS011;40769;51.512;5.494;2023-09-18T14:44:04;1.45;;;1.33;;
13807;SDS011;40769;51.512;5.494;2023-09-18T14:46:30;1.63;;;1.35;;
13807;SDS011;40769;51.512;5.494;2023-09-18T14:48:59;2.53;;;1.23;;
13807;SDS011;40769;51.512;5.494;2023-09-18T14:51:26;1.73;;;1.42;;
13807;SDS011;40769;51.512;5.494;2023-09-18T14:53:53;1.85;;;1.60;;
13807;SDS011;40769;51.512;5.494;2023-09-18T14:56:19;1.65;;;1.40;;
13807;SDS011;40769;51.512;5.494;2023-09-18T14:58:45;1.63;;;1.40;;
13807;SDS011;40769;51.512;5.494;2023-09-18T15:01:11;1.50;;;1.40;;
13807;SDS011;40769;51.512;5.494;2023-09-18T15:03:37;1.50;;;1.40;;
13807;SDS011;40769;51.512;5.494;2023-09-18T15:06:04;1.30;;;1.20;;
13807;SDS011;40769;51.512;5.494;2023-09-18T15:08:32;2.88;;;1.35;;
13807;SDS011;40769;51.512;5.494;2023-09-18T15:11:00;1.50;;;1.40;;
13807;SDS011;40769;51.512;5.494;2023-09-18T15:13:26;2.50;;;1.40;;
13807;SDS011;40769;51.512;5.494;2023-09-18T15:15:52;4.30;;;1.63;;